sensor_id;sensor_type;location;lat;lon;timestamp;pressure;altitude;pressure_sealevel;temperature;humidity
47815;BME280;33579;50.058;18.130;2023-03-31T00:00:06;98509.47;;;8.54;100.00
47815;BME280;33579;50.058;18.130;2023-03-31T00:01:08;98501.97;;;8.50;100.00
47815;BME280;33579;50.058;18.130;2023-03-31T00:02:09;98501.19;;;8.59;100.00
47815;BME280;33579;50.058;18.130;2023-03-31T00:03:12;98507.38;;;8.58;100.00
47815;BME280;33579;50.058;18.130;2023-03-31T00:04:14;98501.44;;;8.56;100.00
47815;BME280;33579;50.058;18.130;2023-03-31T00:05:16;98498.81;;;8.56;100.00
47815;BME280;33579;50.058;18.130;2023-03-31T00:06:17;98500.91;;;8.62;100.00
47815;BME280;33579;50.058;18.130;2023-03-31T00:07:20;98499.81;;;8.65;100.00
47815;BME280;33579;50.058;18.130;2023-03-31T00:08:22;98500.50;;;8.67;100.00
47815;BME280;33579;50.058;18.130;2023-03-31T00:09:24;98503.13;;;8.67;100.00
47815;BME280;33579;50.058;18.130;2023-03-31T00:10:34;98498.13;;;8.64;100.00
47815;BME280;33579;50.058;18.130;2023-03-31T00:11:36;98495.25;;;8.67;100.00
47815;BME280;33579;50.058;18.130;2023-03-31T00:12:37;98498.28;;;8.62;100.00
47815;BME280;33579;50.058;18.130;2023-03-31T00:13:39;98493.47;;;8.57;100.00
47815;BME280;33579;50.058;18.130;2023-03-31T00:14:41;98488.63;;;8.53;100.00
47815;BME280;33579;50.058;18.130;2023-03-31T00:15:43;98495.09;;;8.49;100.00
47815;BME280;33579;50.058;18.130;2023-03-31T00:16:45;98497.28;;;8.43;100.00
47815;BME280;33579;50.058;18.130;2023-03-31T00:17:47;98488.16;;;8.38;100.00
47815;BME280;33579;50.058;18.130;2023-03-31T00:18:48;98493.97;;;8.32;100.00
47815;BME280;33579;50.058;18.130;2023-03-31T00:19:50;98491.63;;;8.28;100.00
47815;BME280;33579;50.058;18.130;2023-03-31T00:20:53;98484.28;;;8.32;100.00
47815;BME280;33579;50.058;18.130;2023-03-31T00:21:54;98482.41;;;8.34;100.00
47815;BME280;33579;50.058;18.130;2023-03-31T00:22:56;98484.84;;;8.36;100.00
47815;BME280;33579;50.058;18.130;2023-03-31T00:24:05;98486.78;;;8.34;100.00
47815;BME280;33579;50.058;18.130;2023-03-31T00:25:08;98485.41;;;8.39;100.00
47815;BME280;33579;50.058;18.130;2023-03-31T00:26:10;98486.38;;;8.38;100.00
47815;BME280;33579;50.058;18.130;2023-03-31T00:27:11;98489.41;;;8.43;100.00
47815;BME280;33579;50.058;18.130;2023-03-31T00:28:13;98495.63;;;8.42;100.00
47815;BME280;33579;50.058;18.130;2023-03-31T00:29:14;98491.50;;;8.40;100.00
47815;BME280;33579;50.058;18.130;2023-03-31T00:30:16;98493.69;;;8.44;100.00
47815;BME280;33579;50.058;18.130;2023-03-31T00:31:18;98495.50;;;8.44;100.00
47815;BME280;33579;50.058;18.130;2023-03-31T00:32:20;98492.03;;;8.43;100.00
47815;BME280;33579;50.058;18.130;2023-03-31T00:33:22;98498.81;;;8.46;100.00
47815;BME280;33579;50.058;18.130;2023-03-31T00:34:25;98502.50;;;8.43;100.00
47815;BME280;33579;50.058;18.130;2023-03-31T00:35:26;98496.31;;;8.35;100.00
47815;BME280;33579;50.058;18.130;2023-03-31T00:36:28;98500.59;;;8.36;100.00
47815;BME280;33579;50.058;18.130;2023-03-31T00:37:30;98500.31;;;8.39;100.00
47815;BME280;33579;50.058;18.130;2023-03-31T00:38:32;98503.59;;;8.31;100.00
47815;BME280;33579;50.058;18.130;2023-03-31T00:39:34;98497.69;;;8.29;100.00
47815;BME280;33579;50.058;18.130;2023-03-31T00:40:36;98501.94;;;8.30;100.00
47815;BME280;33579;50.058;18.130;2023-03-31T00:41:38;98500.19;;;8.30;100.00
47815;BME280;33579;50.058;18.130;2023-03-31T00:42:41;98502.25;;;8.27;100.00
47815;BME280;33579;50.058;18.130;2023-03-31T00:44:22;98496.03;;;8.18;100.00
47815;BME280;33579;50.058;18.130;2023-03-31T00:45:28;98498.66;;;8.18;100.00
47815;BME280;33579;50.058;18.130;2023-03-31T00:46:33;98498.06;;;8.14;100.00
47815;BME280;33579;50.058;18.130;2023-03-31T00:47:39;98498.78;;;8.16;100.00
47815;BME280;33579;50.058;18.130;2023-03-31T00:48:55;98499.59;;;8.17;100.00
47815;BME280;33579;50.058;18.130;2023-03-31T00:49:58;98499.72;;;8.15;100.00
47815;BME280;33579;50.058;18.130;2023-03-31T00:51:03;98495.63;;;8.23;100.00
47815;BME280;33579;50.058;18.130;2023-03-31T00:53:20;98488.16;;;8.28;100.00
47815;BME280;33579;50.058;18.130;2023-03-31T00:54:24;98492.44;;;8.29;100.00
47815;BME280;33579;50.058;18.130;2023-03-31T00:55:33;98490.25;;;8.34;100.00
47815;BME280;33579;50.058;18.130;2023-03-31T00:56:38;98492.72;;;8.26;100.00
47815;BME280;33579;50.058;18.130;2023-03-31T00:57:44;98493.00;;;8.23;100.00
47815;BME280;33579;50.058;18.130;2023-03-31T00:58:47;98495.34;;;8.26;100.00
47815;BME280;33579;50.058;18.130;2023-03-31T00:59:50;98493.53;;;8.26;100.00
47815;BME280;33579;50.058;18.130;2023-03-31T01:00:58;98494.50;;;8.25;100.00
47815;BME280;33579;50.058;18.130;2023-03-31T01:02:01;98493.28;;;8.29;100.00
47815;BME280;33579;50.058;18.130;2023-03-31T01:03:05;98494.09;;;8.30;100.00
47815;BME280;33579;50.058;18.130;2023-03-31T01:04:09;98492.72;;;8.26;100.00
47815;BME280;33579;50.058;18.130;2023-03-31T01:05:13;98492.31;;;8.30;100.00
47815;BME280;33579;50.058;18.130;2023-03-31T01:06:16;98492.72;;;8.26;100.00
47815;BME280;33579;50.058;18.130;2023-03-31T01:07:23;98486.91;;;8.22;100.00
47815;BME280;33579;50.058;18.130;2023-03-31T01:08:27;98489.81;;;8.19;100.00
47815;BME280;33579;50.058;18.130;2023-03-31T01:09:29;98491.75;;;8.17;100.00
47815;BME280;33579;50.058;18.130;2023-03-31T01:10:38;98482.91;;;8.18;100.00
47815;BME280;33579;50.058;18.130;2023-03-31T01:11:46;98487.75;;;8.23;100.00
47815;BME280;33579;50.058;18.130;2023-03-31T01:12:52;98483.06;;;8.26;100.00
47815;BME280;33579;50.058;18.130;2023-03-31T01:13:55;98479.75;;;8.24;100.00
47815;BME280;33579;50.058;18.130;2023-03-31T01:14:57;98487.06;;;8.30;100.00
47815;BME280;33579;50.058;18.130;2023-03-31T01:15:59;98486.91;;;8.32;100.00
47815;BME280;33579;50.058;18.130;2023-03-31T01:17:00;98493.69;;;8.35;100.00
47815;BME280;33579;50.058;18.130;2023-03-31T01:18:04;98486.78;;;8.34;100.00
47815;BME280;33579;50.058;18.130;2023-03-31T01:19:12;98487.47;;;8.36;100.00
47815;BME280;33579;50.058;18.130;2023-03-31T01:23:14;98492.31;;;8.30;100.00
47815;BME280;33579;50.058;18.130;2023-03-31T01:28:01;98493.28;;;8.39;100.00
47815;BME280;33579;50.058;18.130;2023-03-31T01:38:23;98484.56;;;8.29;100.00
47815;BME280;33579;50.058;18.130;2023-03-31T01:42:51;98483.31;;;8.13;100.00
47815;BME280;33579;50.058;18.130;2023-03-31T01:44:04;98470.50;;;8.10;100.00
47815;BME280;33579;50.058;18.130;2023-03-31T01:47:39;98470.78;;;8.17;100.00
47815;BME280;33579;50.058;18.130;2023-03-31T01:48:58;98474.91;;;8.10;100.00
47815;BME280;33579;50.058;18.130;2023-03-31T01:50:23;98467.88;;;8.10;100.00
47815;BME280;33579;50.058;18.130;2023-03-31T01:55:38;98476.28;;;8.14;100.00
47815;BME280;33579;50.058;18.130;2023-03-31T01:57:00;98470.09;;;8.15;100.00
47815;BME280;33579;50.058;18.130;2023-03-31T01:58:31;98464.69;;;8.07;100.00
47815;BME280;33579;50.058;18.130;2023-03-31T02:00:54;98478.03;;;7.94;100.00
47815;BME280;33579;50.058;18.130;2023-03-31T02:02:05;98473.75;;;7.93;100.00
47815;BME280;33579;50.058;18.130;2023-03-31T02:03:10;98478.72;;;7.86;100.00
47815;BME280;33579;50.058;18.130;2023-03-31T02:04:22;98460.94;;;7.90;100.00
47815;BME280;33579;50.058;18.130;2023-03-31T02:05:29;98473.75;;;7.93;100.00
47815;BME280;33579;50.058;18.130;2023-03-31T02:06:37;98478.19;;;7.92;100.00
47815;BME280;33579;50.058;18.130;2023-03-31T02:08:08;98475.56;;;7.92;100.00
47815;BME280;33579;50.058;18.130;2023-03-31T02:09:16;98470.75;;;7.97;100.00
47815;BME280;33579;50.058;18.130;2023-03-31T02:10:20;98479.16;;;7.91;100.00
47815;BME280;33579;50.058;18.130;2023-03-31T02:11:23;98476.25;;;7.94;100.00
47815;BME280;33579;50.058;18.130;2023-03-31T02:12:27;98488.91;;;7.89;100.00
47815;BME280;33579;50.058;18.130;2023-03-31T02:13:32;98479.25;;;7.80;100.00
47815;BME280;33579;50.058;18.130;2023-03-31T02:14:37;98480.06;;;7.80;100.00
47815;BME280;33579;50.058;18.130;2023-03-31T02:15:43;98472.66;;;7.85;100.00
47815;BME280;33579;50.058;18.130;2023-03-31T02:16:49;98470.59;;;7.89;100.00
47815;BME280;33579;50.058;18.130;2023-03-31T02:17:55;98466.59;;;7.95;100.00
47815;BME280;33579;50.058;18.130;2023-03-31T02:19:00;98469.66;;;8.00;100.00
47815;BME280;33579;50.058;18.130;2023-03-31T02:20:08;98467.44;;;8.05;100.00
47815;BME280;33579;50.058;18.130;2023-03-31T02:21:11;98466.75;;;8.03;100.00
47815;BME280;33579;50.058;18.130;2023-03-31T02:22:15;98463.31;;;8.02;100.00
47815;BME280;33579;50.058;18.130;2023-03-31T02:23:23;98465.66;;;8.06;100.00
47815;BME280;33579;50.058;18.130;2023-03-31T02:24:28;98474.63;;;8.03;100.00
47815;BME280;33579;50.058;18.130;2023-03-31T02:26:01;98469.38;;;8.03;100.00
47815;BME280;33579;50.058;18.130;2023-03-31T02:27:20;98476.38;;;7.93;100.00
47815;BME280;33579;50.058;18.130;2023-03-31T02:28:24;98462.59;;;7.91;100.00
47815;BME280;33579;50.058;18.130;2023-03-31T02:29:26;98474.59;;;7.93;100.00
47815;BME280;33579;50.058;18.130;2023-03-31T02:32:20;98460.81;;;7.91;100.00
47815;BME280;33579;50.058;18.130;2023-03-31T02:33:13;98471.28;;;7.91;100.00
47815;BME280;33579;50.058;18.130;2023-03-31T02:34:15;98460.66;;;7.93;100.00
47815;BME280;33579;50.058;18.130;2023-03-31T02:35:18;98467.31;;;7.97;100.00
47815;BME280;33579;50.058;18.130;2023-03-31T02:36:21;98461.09;;;7.98;100.00
47815;BME280;33579;50.058;18.130;2023-03-31T02:37:25;98456.28;;;8.03;100.00
47815;BME280;33579;50.058;18.130;2023-03-31T02:38:32;98458.91;;;8.03;100.00
47815;BME280;33579;50.058;18.130;2023-03-31T02:39:40;98465.22;;;8.00;100.00
47815;BME280;33579;50.058;18.130;2023-03-31T02:40:44;98459.69;;;7.94;100.00
47815;BME280;33579;50.058;18.130;2023-03-31T02:41:46;98453.25;;;7.98;100.00
47815;BME280;33579;50.058;18.130;2023-03-31T02:42:48;98456.69;;;7.98;100.00
47815;BME280;33579;50.058;18.130;2023-03-31T02:43:50;98454.06;;;7.98;100.00
47815;BME280;33579;50.058;18.130;2023-03-31T02:44:52;98446.59;;;7.94;100.00
47815;BME280;33579;50.058;18.130;2023-03-31T02:45:53;98448.25;;;7.95;100.00
47815;BME280;33579;50.058;18.130;2023-03-31T02:46:55;98442.78;;;7.98;100.00
47815;BME280;33579;50.058;18.130;2023-03-31T02:47:57;98448.53;;;8.01;100.00
47815;BME280;33579;50.058;18.130;2023-03-31T02:49:00;98448.41;;;8.03;100.00
47815;BME280;33579;50.058;18.130;2023-03-31T02:50:03;98437.66;;;8.06;100.00
47815;BME280;33579;50.058;18.130;2023-03-31T02:53:32;98437.25;;;8.01;100.00
47815;BME280;33579;50.058;18.130;2023-03-31T03:00:45;98436.56;;;8.09;100.00
47815;BME280;33579;50.058;18.130;2023-03-31T03:02:47;98432.69;;;8.13;100.00
47815;BME280;33579;50.058;18.130;2023-03-31T03:04:20;98430.63;;;8.26;100.00
47815;BME280;33579;50.058;18.130;2023-03-31T03:07:00;98436.56;;;8.19;100.00
47815;BME280;33579;50.058;18.130;2023-03-31T03:09:34;98429.69;;;8.08;100.00
47815;BME280;33579;50.058;18.130;2023-03-31T03:11:04;98429.13;;;7.94;100.00
47815;BME280;33579;50.058;18.130;2023-03-31T03:14:35;98418.91;;;7.91;100.00
47815;BME280;33579;50.058;18.130;2023-03-31T03:15:21;98423.88;;;7.84;100.00
47815;BME280;33579;50.058;18.130;2023-03-31T03:16:32;98421.91;;;7.77;100.00
47815;BME280;33579;50.058;18.130;2023-03-31T03:17:41;98425.63;;;7.74;100.00
47815;BME280;33579;50.058;18.130;2023-03-31T03:18:58;98431.00;;;7.72;100.00
47815;BME280;33579;50.058;18.130;2023-03-31T03:20:01;98422.19;;;7.73;100.00
47815;BME280;33579;50.058;18.130;2023-03-31T03:21:04;98420.66;;;7.71;100.00
47815;BME280;33579;50.058;18.130;2023-03-31T03:22:05;98416.25;;;7.71;100.00
47815;BME280;33579;50.058;18.130;2023-03-31T03:23:09;98417.50;;;7.67;100.00
47815;BME280;33579;50.058;18.130;2023-03-31T03:24:11;98422.72;;;7.67;100.00
47815;BME280;33579;50.058;18.130;2023-03-31T03:25:13;98414.59;;;7.70;100.00
47815;BME280;33579;50.058;18.130;2023-03-31T03:26:15;98419.16;;;7.68;100.00
47815;BME280;33579;50.058;18.130;2023-03-31T03:27:18;98415.13;;;7.64;100.00
47815;BME280;33579;50.058;18.130;2023-03-31T03:28:20;98417.34;;;7.69;100.00
47815;BME280;33579;50.058;18.130;2023-03-31T03:29:21;98413.91;;;7.68;100.00
47815;BME280;33579;50.058;18.130;2023-03-31T03:30:23;98412.25;;;7.67;100.00
47815;BME280;33579;50.058;18.130;2023-03-31T03:31:24;98416.94;;;7.64;100.00
47815;BME280;33579;50.058;18.130;2023-03-31T03:32:27;98411.00;;;7.62;100.00
47815;BME280;33579;50.058;18.130;2023-03-31T03:33:28;98410.84;;;7.63;100.00
47815;BME280;33579;50.058;18.130;2023-03-31T03:34:30;98415.00;;;7.66;100.00
47815;BME280;33579;50.058;18.130;2023-03-31T03:35:32;98411.69;;;7.64;100.00
47815;BME280;33579;50.058;18.130;2023-03-31T03:36:35;98411.13;;;7.70;100.00
47815;BME280;33579;50.058;18.130;2023-03-31T03:37:37;98416.53;;;7.68;100.00
47815;BME280;33579;50.058;18.130;2023-03-31T03:38:39;98418.03;;;7.71;100.00
47815;BME280;33579;50.058;18.130;2023-03-31T03:39:41;98413.63;;;7.71;100.00
47815;BME280;33579;50.058;18.130;2023-03-31T03:40:42;98412.09;;;7.69;100.00
47815;BME280;33579;50.058;18.130;2023-03-31T03:41:44;98417.22;;;7.70;100.00
47815;BME280;33579;50.058;18.130;2023-03-31T03:42:45;98413.91;;;7.78;100.00
47815;BME280;33579;50.058;18.130;2023-03-31T03:43:47;98408.41;;;7.81;100.00
47815;BME280;33579;50.058;18.130;2023-03-31T03:44:49;98409.66;;;7.87;100.00
47815;BME280;33579;50.058;18.130;2023-03-31T03:45:50;98413.41;;;7.94;100.00
47815;BME280;33579;50.058;18.130;2023-03-31T03:46:52;98407.19;;;7.95;100.00
47815;BME280;33579;50.058;18.130;2023-03-31T03:47:54;98411.88;;;8.01;100.00
47815;BME280;33579;50.058;18.130;2023-03-31T03:48:55;98416.28;;;8.11;100.00
47815;BME280;33579;50.058;18.130;2023-03-31T03:49:57;98413.84;;;8.09;100.00
47815;BME280;33579;50.058;18.130;2023-03-31T03:50:59;98413.97;;;8.08;100.00
47815;BME280;33579;50.058;18.130;2023-03-31T03:52:01;98410.94;;;8.02;100.00
47815;BME280;33579;50.058;18.130;2023-03-31T03:53:03;98422.91;;;7.95;100.00
47815;BME280;33579;50.058;18.130;2023-03-31T03:54:05;98420.84;;;7.99;100.00
47815;BME280;33579;50.058;18.130;2023-03-31T03:55:06;98413.25;;;7.96;100.00
47815;BME280;33579;50.058;18.130;2023-03-31T03:56:08;98412.84;;;8.00;100.00
47815;BME280;33579;50.058;18.130;2023-03-31T03:57:10;98416.31;;;8.01;100.00
47815;BME280;33579;50.058;18.130;2023-03-31T03:58:11;98422.50;;;8.00;100.00
47815;BME280;33579;50.058;18.130;2023-03-31T03:59:13;98412.72;;;8.02;100.00
47815;BME280;33579;50.058;18.130;2023-03-31T04:00:15;98411.75;;;7.93;100.00
47815;BME280;33579;50.058;18.130;2023-03-31T04:01:16;98411.31;;;7.88;100.00
47815;BME280;33579;50.058;18.130;2023-03-31T04:02:18;98412.97;;;7.89;100.00
47815;BME280;33579;50.058;18.130;2023-03-31T04:03:20;98412.00;;;7.90;100.00
47815;BME280;33579;50.058;18.130;2023-03-31T04:04:22;98410.78;;;7.94;100.00
47815;BME280;33579;50.058;18.130;2023-03-31T04:05:23;98406.63;;;7.92;100.00
47815;BME280;33579;50.058;18.130;2023-03-31T04:06:25;98404.84;;;7.92;100.00
47815;BME280;33579;50.058;18.130;2023-03-31T04:07:27;98407.59;;;7.91;100.00
47815;BME280;33579;50.058;18.130;2023-03-31T04:08:28;98404.97;;;7.91;100.00
47815;BME280;33579;50.058;18.130;2023-03-31T04:09:30;98402.50;;;7.89;100.00
47815;BME280;33579;50.058;18.130;2023-03-31T04:10:32;98397.38;;;7.78;100.00
47815;BME280;33579;50.058;18.130;2023-03-31T04:11:34;98391.03;;;7.70;100.00
47815;BME280;33579;50.058;18.130;2023-03-31T04:12:36;98397.94;;;7.71;100.00
47815;BME280;33579;50.058;18.130;2023-03-31T04:13:37;98392.97;;;7.68;100.00
47815;BME280;33579;50.058;18.130;2023-03-31T04:14:39;98392.81;;;7.60;100.00
47815;BME280;33579;50.058;18.130;2023-03-31T04:15:41;98398.72;;;7.52;100.00
47815;BME280;33579;50.058;18.130;2023-03-31T04:16:42;98398.28;;;7.47;100.00
47815;BME280;33579;50.058;18.130;2023-03-31T04:17:44;98400.50;;;7.52;100.00
47815;BME280;33579;50.058;18.130;2023-03-31T04:18:46;98390.97;;;7.51;100.00
47815;BME280;33579;50.058;18.130;2023-03-31T04:19:47;98390.75;;;7.54;100.00
47815;BME280;33579;50.058;18.130;2023-03-31T04:20:53;98387.97;;;7.55;100.00
47815;BME280;33579;50.058;18.130;2023-03-31T04:21:54;98390.31;;;7.58;100.00
47815;BME280;33579;50.058;18.130;2023-03-31T04:22:56;98384.38;;;7.56;100.00
47815;BME280;33579;50.058;18.130;2023-03-31T04:23:58;98386.88;;;7.48;100.00
47815;BME280;33579;50.058;18.130;2023-03-31T04:25:03;98381.75;;;7.47;100.00
47815;BME280;33579;50.058;18.130;2023-03-31T04:26:05;98382.16;;;7.52;100.00
47815;BME280;33579;50.058;18.130;2023-03-31T04:27:07;98377.47;;;7.45;100.00
47815;BME280;33579;50.058;18.130;2023-03-31T04:28:09;98382.59;;;7.47;100.00
47815;BME280;33579;50.058;18.130;2023-03-31T04:29:12;98376.13;;;7.51;100.00
47815;BME280;33579;50.058;18.130;2023-03-31T04:30:15;98375.97;;;7.53;100.00
47815;BME280;33579;50.058;18.130;2023-03-31T04:31:17;98376.81;;;7.53;100.00
47815;BME280;33579;50.058;18.130;2023-03-31T04:32:22;98371.69;;;7.52;100.00
47815;BME280;33579;50.058;18.130;2023-03-31T04:33:24;98380.13;;;7.55;100.00
47815;BME280;33579;50.058;18.130;2023-03-31T04:34:26;98369.06;;;7.52;100.00
47815;BME280;33579;50.058;18.130;2023-03-31T04:35:31;98375.16;;;7.52;100.00
47815;BME280;33579;50.058;18.130;2023-03-31T04:36:33;98372.25;;;7.55;100.00
47815;BME280;33579;50.058;18.130;2023-03-31T04:37:34;98375.72;;;7.56;100.00
47815;BME280;33579;50.058;18.130;2023-03-31T04:38:36;98369.25;;;7.60;100.00
47815;BME280;33579;50.058;18.130;2023-03-31T04:39:37;98370.09;;;7.61;100.00
47815;BME280;33579;50.058;18.130;2023-03-31T04:40:39;98367.75;;;7.67;100.00
47815;BME280;33579;50.058;18.130;2023-03-31T04:41:41;98368.16;;;7.63;100.00
47815;BME280;33579;50.058;18.130;2023-03-31T04:42:43;98365.81;;;7.59;100.00
47815;BME280;33579;50.058;18.130;2023-03-31T04:43:45;98365.66;;;7.61;100.00
47815;BME280;33579;50.058;18.130;2023-03-31T04:44:46;98362.91;;;7.63;100.00
47815;BME280;33579;50.058;18.130;2023-03-31T04:45:48;98369.41;;;7.68;100.00
47815;BME280;33579;50.058;18.130;2023-03-31T04:46:50;98372.84;;;7.69;100.00
47815;BME280;33579;50.058;18.130;2023-03-31T04:47:51;98375.19;;;7.72;100.00
47815;BME280;33579;50.058;18.130;2023-03-31T04:48:53;98368.72;;;7.76;100.00
47815;BME280;33579;50.058;18.130;2023-03-31T04:49:55;98375.50;;;7.79;100.00
47815;BME280;33579;50.058;18.130;2023-03-31T04:50:56;98366.38;;;7.73;100.00
47815;BME280;33579;50.058;18.130;2023-03-31T04:51:58;98376.41;;;7.78;100.00
47815;BME280;33579;50.058;18.130;2023-03-31T04:53:00;98374.81;;;7.86;100.00
47815;BME280;33579;50.058;18.130;2023-03-31T04:54:01;98379.19;;;7.86;100.00
47815;BME280;33579;50.058;18.130;2023-03-31T04:55:03;98373.84;;;7.87;100.00
47815;BME280;33579;50.058;18.130;2023-03-31T04:56:05;98377.00;;;7.91;100.00
47815;BME280;33579;50.058;18.130;2023-03-31T04:57:07;98372.59;;;7.92;100.00
47815;BME280;33579;50.058;18.130;2023-03-31T04:58:09;98371.50;;;7.94;100.00
47815;BME280;33579;50.058;18.130;2023-03-31T04:59:10;98379.63;;;7.91;100.00
47815;BME280;33579;50.058;18.130;2023-03-31T05:00:12;98374.78;;;7.96;100.00
47815;BME280;33579;50.058;18.130;2023-03-31T05:01:14;98372.19;;;7.96;100.00
47815;BME280;33579;50.058;18.130;2023-03-31T05:02:15;98365.69;;;8.00;100.00
47815;BME280;33579;50.058;18.130;2023-03-31T05:03:17;98366.25;;;8.04;100.00
47815;BME280;33579;50.058;18.130;2023-03-31T05:04:19;98361.69;;;8.06;100.00
47815;BME280;33579;50.058;18.130;2023-03-31T05:05:20;98364.06;;;8.09;100.00
47815;BME280;33579;50.058;18.130;2023-03-31T05:06:22;98367.91;;;8.15;100.00
47815;BME280;33579;50.058;18.130;2023-03-31T05:07:24;98368.16;;;8.12;100.00
47815;BME280;33579;50.058;18.130;2023-03-31T05:08:25;98362.81;;;8.13;100.00
47815;BME280;33579;50.058;18.130;2023-03-31T05:09:27;98360.47;;;8.20;100.00
47815;BME280;33579;50.058;18.130;2023-03-31T05:10:29;98358.94;;;8.27;100.00
47815;BME280;33579;50.058;18.130;2023-03-31T05:11:31;98361.00;;;8.34;100.00
47815;BME280;33579;50.058;18.130;2023-03-31T05:12:34;98356.00;;;8.40;100.00
47815;BME280;33579;50.058;18.130;2023-03-31T05:13:36;98356.16;;;8.49;100.00
47815;BME280;33579;50.058;18.130;2023-03-31T05:14:38;98349.09;;;8.69;100.00
47815;BME280;33579;50.058;18.130;2023-03-31T05:15:39;98349.56;;;8.92;100.00
47815;BME280;33579;50.058;18.130;2023-03-31T05:16:41;98353.31;;;9.18;100.00
47815;BME280;33579;50.058;18.130;2023-03-31T05:17:43;98349.34;;;9.41;100.00
47815;BME280;33579;50.058;18.130;2023-03-31T05:18:44;98351.91;;;9.69;100.00
47815;BME280;33579;50.058;18.130;2023-03-31T05:19:46;98346.59;;;9.97;100.00
47815;BME280;33579;50.058;18.130;2023-03-31T05:20:47;98353.94;;;10.12;100.00
47815;BME280;33579;50.058;18.130;2023-03-31T05:21:49;98353.25;;;10.28;100.00
47815;BME280;33579;50.058;18.130;2023-03-31T05:22:51;98353.25;;;10.46;100.00
47815;BME280;33579;50.058;18.130;2023-03-31T05:23:52;98351.53;;;10.63;100.00
47815;BME280;33579;50.058;18.130;2023-03-31T05:24:54;98355.03;;;10.72;100.00
47815;BME280;33579;50.058;18.130;2023-03-31T05:25:56;98352.88;;;10.94;100.00
47815;BME280;33579;50.058;18.130;2023-03-31T05:26:57;98357.72;;;11.07;100.00
47815;BME280;33579;50.058;18.130;2023-03-31T05:28:00;98353.03;;;11.27;100.00
47815;BME280;33579;50.058;18.130;2023-03-31T05:29:01;98357.16;;;11.30;100.00
47815;BME280;33579;50.058;18.130;2023-03-31T05:30:04;98356.69;;;11.43;100.00
47815;BME280;33579;50.058;18.130;2023-03-31T05:31:07;98356.91;;;11.58;100.00
47815;BME280;33579;50.058;18.130;2023-03-31T05:32:09;98353.47;;;11.74;100.00
47815;BME280;33579;50.058;18.130;2023-03-31T05:33:10;98360.69;;;11.72;100.00
47815;BME280;33579;50.058;18.130;2023-03-31T05:34:15;98358.91;;;11.72;100.00
47815;BME280;33579;50.058;18.130;2023-03-31T05:35:16;98360.56;;;11.73;100.00
47815;BME280;33579;50.058;18.130;2023-03-31T05:36:18;98359.91;;;11.79;100.00
47815;BME280;33579;50.058;18.130;2023-03-31T05:37:20;98354.50;;;11.89;100.00
47815;BME280;33579;50.058;18.130;2023-03-31T05:38:22;98356.28;;;11.80;100.00
47815;BME280;33579;50.058;18.130;2023-03-31T05:39:23;98346.22;;;11.84;100.00
47815;BME280;33579;50.058;18.130;2023-03-31T05:40:25;98361.41;;;11.90;100.00
47815;BME280;33579;50.058;18.130;2023-03-31T05:41:27;98353.50;;;11.99;100.00
47815;BME280;33579;50.058;18.130;2023-03-31T05:42:28;98358.66;;;12.08;100.00
47815;BME280;33579;50.058;18.130;2023-03-31T05:43:30;98351.88;;;12.06;100.00
47815;BME280;33579;50.058;18.130;2023-03-31T05:44:32;98356.16;;;12.07;100.00
47815;BME280;33579;50.058;18.130;2023-03-31T05:45:33;98367.06;;;12.12;100.00
47815;BME280;33579;50.058;18.130;2023-03-31T05:46:35;98362.09;;;12.09;100.00
47815;BME280;33579;50.058;18.130;2023-03-31T05:47:37;98368.22;;;12.18;100.00
47815;BME280;33579;50.058;18.130;2023-03-31T05:48:38;98359.81;;;12.22;100.00
47815;BME280;33579;50.058;18.130;2023-03-31T05:49:40;98361.63;;;12.22;100.00
47815;BME280;33579;50.058;18.130;2023-03-31T05:50:42;98363.25;;;12.23;100.00
47815;BME280;33579;50.058;18.130;2023-03-31T05:51:44;98356.34;;;12.30;100.00
47815;BME280;33579;50.058;18.130;2023-03-31T05:52:45;98358.66;;;12.42;100.00
47815;BME280;33579;50.058;18.130;2023-03-31T05:53:47;98354.53;;;12.39;100.00
47815;BME280;33579;50.058;18.130;2023-03-31T05:54:48;98357.31;;;12.37;100.00
47815;BME280;33579;50.058;18.130;2023-03-31T05:55:56;98357.47;;;12.44;100.00
47815;BME280;33579;50.058;18.130;2023-03-31T05:56:57;98356.47;;;12.45;100.00
47815;BME280;33579;50.058;18.130;2023-03-31T05:57:59;98350.72;;;12.50;100.00
47815;BME280;33579;50.058;18.130;2023-03-31T05:59:01;98351.22;;;12.54;100.00
47815;BME280;33579;50.058;18.130;2023-03-31T06:00:03;98356.81;;;12.50;100.00
47815;BME280;33579;50.058;18.130;2023-03-31T06:01:08;98353.69;;;12.55;100.00
47815;BME280;33579;50.058;18.130;2023-03-31T06:02:12;98356.00;;;12.58;100.00
47815;BME280;33579;50.058;18.130;2023-03-31T06:03:14;98348.91;;;12.50;100.00
47815;BME280;33579;50.058;18.130;2023-03-31T06:04:15;98350.22;;;12.55;100.00
47815;BME280;33579;50.058;18.130;2023-03-31T06:05:17;98349.88;;;12.66;100.00
47815;BME280;33579;50.058;18.130;2023-03-31T06:06:20;98350.34;;;12.78;100.00
47815;BME280;33579;50.058;18.130;2023-03-31T06:07:23;98346.16;;;13.00;100.00
47815;BME280;33579;50.058;18.130;2023-03-31T06:08:24;98343.16;;;13.12;100.00
47815;BME280;33579;50.058;18.130;2023-03-31T06:09:26;98336.66;;;13.23;100.00
47815;BME280;33579;50.058;18.130;2023-03-31T06:10:28;98343.53;;;13.40;100.00
47815;BME280;33579;50.058;18.130;2023-03-31T06:11:30;98341.38;;;13.44;100.00
47815;BME280;33579;50.058;18.130;2023-03-31T06:12:32;98332.44;;;13.45;100.00
47815;BME280;33579;50.058;18.130;2023-03-31T06:13:34;98339.97;;;13.56;100.00
47815;BME280;33579;50.058;18.130;2023-03-31T06:14:36;98341.63;;;13.57;100.00
47815;BME280;33579;50.058;18.130;2023-03-31T06:15:37;98339.84;;;13.49;100.00
47815;BME280;33579;50.058;18.130;2023-03-31T06:16:39;98340.28;;;13.61;100.00